Xifengzhen, China
Current Conditions -  °F | °C
As of 7:00 AM on Wednesday 28 Jan 2015 (Local Time) from ZLXY Reporting Station
Haze Haze  
Wind Chill: 15°   Ceiling: 5000
Heat Index: 27°   Visibility: 1.8mi
Dew Point: 23°   Wind: 13mph
Humidity: 86%   Direction: 60°ENE
Pressure: 30.27"   Gusts: NA
Location:  35.73°N, 107.63°E
Report Text: ZLXY 272300Z 06006MPS 3000 R05L/1200N R05R/P2000 BRSCT030OVC050 M03/M05 Q1025 NOSIG
Loading
Personal Weather Stations






























Interactive Weather Map New forecast layout! Learn more

10-Day Weather Forecast

Advertisements
Track Severe Weather on mobile